Coleman A. Young Municipal Airport Detroit US
ICAO: KDET
IATA: DET
Category: Medium
Scheduled Services: No

Elevation: 626 ft
TransAlt. 18000 ft.

Airport Communications:
APP/DEP:126.85
ATIS:124.875
GND:121.85
LANSING RDO:122.2
TWR:121.3
UNICOM:122.95

KDET Zoom In..

If you have problems with the map follow the link
https://www.worldairports.se/pages/airport.php?
ICAO=KDET

Runways:

(A) RW 07 length 3714 ft width 100 ft
---- / hdg 68

(B) RW 15 length 5090 ft width 100 ft
ILS 111.30 / hdg 148

(C) RW 25 length 3714 ft width 100 ft
---- / hdg 248

(D) RW 33 length 5090 ft width 100 ft
ILS 111.30 / hdg 328

Location; KDET
Day. 14 / Time. 15.53 Zulu
* Altimeter: 29.60
* Temperature: 03° c. 37.4°f.
* Wind from: 340° Speed 04 kn.
Dewpoint: 00° c.
Visibility: 7 Statute Miles.
Clouds: Few 4300 ft.
Clouds: Overcast 9500 ft.

KDET 141553Z 34004KT 7SM FEW043 OVC095 03/00 A2960 RMK AO2 SLP029 T00280000


Wind From 340°
Speed 04 kn.

 
 
jpsmedia worldairports.se 2019   terms of use